Time;durP1;ratioP1;P1;durP2;ratioP2;P2;SDS_P1;SDS_P2;PMS_P1;PMS_P2;Temp;Humidity;BMP_temperature;BMP_pressure;BME280_temperature;BME280_humidity;BME280_pressure;Samples;Min_cycle;Max_cycle;Signal;HPM_P1;HPM_P2
2022/05/17 00:00:18;;;;;;;9.97;8.97;;;;;;;16.27;75.00;97345.94;5105305;28;20208;-84
2022/05/17 00:02:49;;;;;;;9.63;7.93;;;;;;;16.54;74.11;97351.19;5100335;28;20185;-85
2022/05/17 00:05:17;;;;;;;9.20;8.03;;;;;;;16.57;73.18;97353.59;5101058;28;20199;-84
2022/05/17 00:07:47;;;;;;;9.07;8.17;;;;;;;16.41;72.33;97329.34;5117460;28;20179;-84
2022/05/17 00:10:18;;;;;;;10.40;8.27;;;;;;;16.39;71.78;97317.31;5112523;28;20206;-84
2022/05/17 00:12:59;;;;;;;13.30;8.63;;;;;;;16.50;71.44;97326.19;5105167;28;20181;-84
2022/05/17 00:15:29;;;;;;;8.40;7.60;;;;;;;16.37;72.02;97313.97;5101933;28;20192;-84
2022/05/17 00:17:57;;;;;;;10.13;8.60;;;;;;;16.28;71.65;97324.06;5100599;28;20189;-83
2022/05/17 00:20:25;;;;;;;10.90;8.97;;;;;;;15.82;72.94;97299.19;5098237;28;21060;-84
2022/05/17 00:22:53;;;;;;;10.03;9.03;;;;;;;15.50;74.71;97310.75;5101078;28;20184;-86
2022/05/17 00:25:28;;;;;;;12.47;9.27;;;;;;;15.43;75.71;97322.50;5115986;28;20254;-85
2022/05/17 00:27:57;;;;;;;11.80;9.50;;;;;;;15.34;76.31;97326.47;5119281;28;20180;-86
2022/05/17 00:30:25;;;;;;;11.00;9.40;;;;;;;15.14;77.85;97320.78;5099649;28;20190;-83
2022/05/17 00:32:53;;;;;;;13.60;10.17;;;;;;;14.92;77.81;97286.47;5122297;28;20207;-86
2022/05/17 00:35:20;;;;;;;9.80;8.80;;;;;;;15.09;76.83;97273.25;5088626;28;20200;-84
2022/05/17 00:37:47;;;;;;;11.67;8.70;;;;;;;15.49;76.05;97298.66;5129466;28;20271;-85
2022/05/17 00:40:16;;;;;;;10.17;8.80;;;;;;;15.72;75.92;97316.34;5129951;28;20212;-84
2022/05/17 00:42:43;;;;;;;10.00;9.00;;;;;;;15.63;74.92;97274.28;5120013;28;20291;-84
2022/05/17 00:45:11;;;;;;;10.03;8.83;;;;;;;15.74;75.34;97309.28;5114470;28;20626;-84
2022/05/17 00:47:50;;;;;;;10.23;8.60;;;;;;;15.48;76.38;97303.97;5115861;28;20188;-86
2022/05/17 00:50:39;;;;;;;9.67;8.53;;;;;;;15.66;76.21;97311.47;5115898;28;20191;-89
2022/05/17 00:53:17;;;;;;;12.97;8.57;;;;;;;15.81;75.12;97305.31;5078334;28;20273;-85
2022/05/17 00:56:00;;;;;;;9.93;8.00;;;;;;;16.07;74.07;97312.34;5116654;28;20196;-84
2022/05/17 00:58:28;;;;;;;9.67;8.00;;;;;;;16.15;74.16;97310.13;5088617;28;20196;-86
2022/05/17 01:01:20;;;;;;;9.83;8.57;;;;;;;16.10;73.69;97295.66;5098315;28;20227;-85
2022/05/17 01:04:12;;;;;;;11.23;9.13;;;;;;;16.19;73.55;97306.38;5116065;28;20188;-86
2022/05/17 01:07:09;;;;;;;9.80;8.80;;;;;;;16.05;74.32;97301.16;5098633;28;20189;-86
2022/05/17 01:09:41;;;;;;;9.97;8.97;;;;;;;15.94;73.92;97282.75;5115392;28;20188;-85
2022/05/17 01:12:21;;;;;;;10.87;8.90;;;;;;;15.89;75.04;97308.28;5096803;28;20209;-85
2022/05/17 01:14:57;;;;;;;10.17;8.47;;;;;;;16.01;75.04;97309.31;5097107;28;20192;-84
2022/05/17 01:17:45;;;;;;;8.87;7.97;;;;;;;15.69;75.59;97293.03;5117765;28;20190;-86
2022/05/17 01:20:13;;;;;;;9.90;8.60;;;;;;;15.71;75.87;97313.81;5118904;28;20220;-87
2022/05/17 01:22:42;;;;;;;12.13;9.13;;;;;;;15.41;76.51;97291.22;5117743;28;20192;-85
2022/05/17 01:25:10;;;;;;;11.17;9.60;;;;;;;15.09;77.57;97281.91;5116209;28;20294;-83
2022/05/17 01:27:47;;;;;;;10.43;9.43;;;;;;;15.04;78.29;97307.44;5117502;28;20186;-85
2022/05/17 01:30:22;;;;;;;10.53;9.43;;;;;;;14.94;79.00;97297.66;5112910;28;20582;-86
2022/05/17 01:32:52;;;;;;;13.17;10.77;;;;;;;14.37;80.37;97297.47;5097494;28;20191;-85
2022/05/17 01:35:32;;;;;;;11.70;10.07;;;;;;;14.06;81.14;97255.78;5117624;28;20746;-85
2022/05/17 01:38:02;;;;;;;12.77;10.07;;;;;;;14.10;81.37;97292.91;5098056;28;20194;-86
2022/05/17 01:40:33;;;;;;;11.77;10.57;;;;;;;13.82;82.59;97275.38;5083220;28;20219;-86
2022/05/17 01:43:01;;;;;;;13.43;10.73;;;;;;;13.93;83.19;97288.63;5095997;28;20305;-84
2022/05/17 01:45:30;;;;;;;12.30;10.60;;;;;;;13.77;83.66;97251.34;5096380;28;20618;-84
2022/05/17 01:47:59;;;;;;;14.03;11.27;;;;;;;14.03;83.05;97282.03;5096516;28;20530;-84
2022/05/17 01:50:30;;;;;;;11.17;9.67;;;;;;;13.99;83.52;97285.72;5120395;28;20253;-85
2022/05/17 01:53:04;;;;;;;12.10;10.30;;;;;;;14.10;82.74;97278.13;5104241;28;20203;-84
2022/05/17 01:55:38;;;;;;;13.27;11.17;;;;;;;13.81;82.60;97216.44;5120943;28;20191;-85
2022/05/17 01:58:08;;;;;;;11.37;10.23;;;;;;;14.01;82.64;97247.41;5120294;28;20228;-85
2022/05/17 02:01:00;;;;;;;13.00;9.80;;;;;;;14.54;81.01;97271.28;5113741;28;20224;-86
2022/05/17 02:03:34;;;;;;;12.57;9.53;;;;;;;14.60;79.60;97265.72;5122921;28;20206;-86
2022/05/17 02:06:05;;;;;;;11.40;10.07;;;;;;;14.43;80.49;97281.47;5122088;28;20259;-84
2022/05/17 02:08:37;;;;;;;12.03;10.03;;;;;;;14.24;81.86;97274.78;5122275;28;20195;-85
2022/05/17 02:11:08;;;;;;;16.97;10.83;;;;;;;14.24;80.79;97246.13;5120285;28;20200;-85
2022/05/17 02:13:41;;;;;;;11.27;9.93;;;;;;;14.26;80.89;97254.69;5112561;28;20210;-86
2022/05/17 02:16:16;;;;;;;11.03;9.03;;;;;;;14.53;80.44;97264.38;5092614;28;20191;-85
2022/05/17 02:18:50;;;;;;;12.53;10.17;;;;;;;14.40;80.14;97241.75;5120505;28;20193;-85
2022/05/17 02:21:22;;;;;;;11.40;10.13;;;;;;;14.05;81.01;97225.50;5104887;28;20246;-84
2022/05/17 02:23:52;;;;;;;12.30;10.00;;;;;;;14.15;82.01;97257.91;5117866;28;20750;-84
2022/05/17 02:26:18;;;;;;;12.07;10.83;;;;;;;13.72;83.50;97228.19;5118370;28;20658;-84
2022/05/17 02:28:45;;;;;;;13.17;11.13;;;;;;;13.77;83.64;97248.75;5123153;28;20248;-85
2022/05/17 02:31:15;;;;;;;12.97;10.40;;;;;;;13.55;83.98;97230.88;5120667;28;20217;-85
2022/05/17 02:33:42;;;;;;;13.00;10.97;;;;;;;13.56;85.07;97258.56;5120007;28;20876;-85
2022/05/17 02:36:09;;;;;;;21.13;10.73;;;;;;;13.28;85.30;97219.38;5100359;28;20191;-85
2022/05/17 02:38:38;;;;;;;14.80;11.27;;;;;;;13.44;85.79;97258.38;5101550;28;20225;-85
2022/05/17 02:41:07;;;;;;;15.30;11.00;;;;;;;13.45;86.00;97258.34;5100105;28;20244;-84
2022/05/17 02:43:34;;;;;;;12.47;10.33;;;;;;;13.63;85.13;97261.69;5098163;28;20197;-85
2022/05/17 02:46:05;;;;;;;13.03;10.37;;;;;;;13.68;84.29;97252.69;5099756;28;20282;-84
2022/05/17 02:48:32;;;;;;;12.83;10.60;;;;;;;13.82;84.17;97260.63;5117259;28;20187;-85
2022/05/17 02:51:28;;;;;;;11.40;10.03;;;;;;;14.02;81.90;97256.91;5126173;28;20193;-85
2022/05/17 02:53:55;;;;;;;12.53;10.30;;;;;;;14.07;81.78;97254.88;5131319;28;20218;-87
2022/05/17 02:56:27;;;;;;;11.93;9.70;;;;;;;13.83;81.89;97228.44;5132745;28;20216;-84
2022/05/17 02:58:57;;;;;;;12.30;10.47;;;;;;;13.73;81.98;97200.41;5116222;28;20210;-86
2022/05/17 03:01:27;;;;;;;14.40;9.80;;;;;;;14.26;80.49;97265.91;5123100;28;20775;-86
2022/05/17 03:03:56;;;;;;;12.07;9.47;;;;;;;14.32;79.26;97260.41;5093953;28;20719;-85
2022/05/17 03:06:24;;;;;;;11.40;9.43;;;;;;;14.45;78.52;97270.97;5111321;28;20693;-87
2022/05/17 03:08:53;;;;;;;10.47;8.93;;;;;;;14.40;77.83;97263.44;5098464;28;20202;-84
2022/05/17 03:11:21;;;;;;;10.00;8.97;;;;;;;14.29;78.13;97265.78;5079778;28;20241;-86
2022/05/17 03:13:48;;;;;;;15.43;10.00;;;;;;;14.29;78.09;97238.91;5116863;28;20709;-96
2022/05/17 03:16:15;;;;;;;17.03;9.30;;;;;;;14.40;77.04;97262.59;5122858;28;20237;-89
2022/05/17 03:18:44;;;;;;;12.67;8.63;;;;;;;14.58;75.63;97274.53;5121842;28;20194;-85
2022/05/17 03:21:14;;;;;;;10.83;8.87;;;;;;;14.56;75.34;97276.41;5120940;28;20323;-85
2022/05/17 03:23:45;;;;;;;13.93;9.60;;;;;;;14.56;75.91;97265.97;5099564;28;20269;-86
2022/05/17 03:26:13;;;;;;;12.03;9.73;;;;;;;14.60;76.51;97264.88;5117633;28;20247;-86
2022/05/17 03:28:46;;;;;;;14.40;9.43;;;;;;;14.53;77.26;97256.56;5105034;28;20192;-85
2022/05/17 03:31:26;;;;;;;13.50;9.50;;;;;;;14.11;78.14;97256.38;5124744;28;20207;-85
2022/05/17 03:33:57;;;;;;;10.90;8.87;;;;;;;13.96;79.03;97272.84;5090447;28;20196;-87
2022/05/17 03:36:35;;;;;;;11.80;9.77;;;;;;;13.86;78.87;97263.88;5103934;28;20222;-85
2022/05/17 03:39:10;;;;;;;11.30;10.10;;;;;;;13.78;80.15;97266.06;5125739;28;20210;-85
2022/05/17 03:41:39;;;;;;;12.30;10.50;;;;;;;14.01;80.88;97283.88;5131390;27;20219;-85
2022/05/17 03:44:57;;;;;;;15.17;10.20;;;;;;;14.24;80.85;97280.81;5110073;28;20210;-84
2022/05/17 03:47:24;;;;;;;13.43;10.20;;;;;;;14.08;79.98;97224.44;5118757;28;20241;-84
2022/05/17 03:49:54;;;;;;;11.93;10.00;;;;;;;14.52;79.13;97251.44;5119744;28;20191;-84
2022/05/17 03:52:29;;;;;;;11.43;9.77;;;;;;;14.95;78.17;97260.19;5095948;28;20205;-85
2022/05/17 03:54:58;;;;;;;11.27;9.17;;;;;;;15.44;76.57;97295.47;5128721;28;20192;-85
2022/05/17 03:57:28;;;;;;;10.40;9.40;;;;;;;15.34;76.09;97244.75;5112974;28;20185;-84
2022/05/17 03:59:58;;;;;;;10.27;7.87;;;;;;;16.01;74.15;97285.81;5110518;28;20195;-85
2022/05/17 04:02:29;;;;;;;10.47;8.30;;;;;;;16.33;72.61;97284.56;5100257;28;20227;-86
2022/05/17 04:04:57;;;;;;;9.60;8.43;;;;;;;16.74;69.93;97287.13;5118588;28;20195;-86
2022/05/17 04:07:24;;;;;;;9.80;8.33;;;;;;;16.95;69.16;97290.94;5114549;28;20226;-82
2022/05/17 04:09:53;;;;;;;10.77;8.07;;;;;;;17.22;67.58;97278.59;5115367;28;20202;-83
2022/05/17 04:12:20;;;;;;;11.07;9.17;;;;;;;17.23;68.28;97279.44;5117647;28;20260;-83
2022/05/17 04:14:54;;;;;;;15.03;8.37;;;;;;;17.85;67.56;97266.28;5086645;28;20197;-82
2022/05/17 04:17:21;;;;;;;9.23;7.93;;;;;;;18.25;64.84;97266.03;5079464;28;20190;-84
2022/05/17 04:19:48;;;;;;;8.97;7.27;;;;;;;18.36;63.36;97271.34;5067732;28;20187;-85
2022/05/17 04:22:15;;;;;;;12.17;7.47;;;;;;;18.21;63.38;97254.09;5106122;28;20256;-85
2022/05/17 04:24:43;;;;;;;10.23;8.47;;;;;;;18.63;62.86;97271.94;5093594;28;20233;-85
2022/05/17 04:27:12;;;;;;;10.50;7.37;;;;;;;18.80;62.33;97282.03;5076950;28;20221;-85
2022/05/17 04:29:39;;;;;;;10.33;7.73;;;;;;;18.95;61.60;97278.28;5093401;28;20196;-85
2022/05/17 04:32:07;;;;;;;12.23;8.50;;;;;;;19.20;60.66;97258.88;5093035;28;20259;-87
2022/05/17 04:34:36;;;;;;;12.60;8.73;;;;;;;18.91;60.85;97268.13;5111080;28;20187;-86
2022/05/17 04:37:04;;;;;;;9.23;8.30;;;;;;;18.89;61.46;97289.25;5108428;28;20179;-84
2022/05/17 04:39:32;;;;;;;14.80;7.97;;;;;;;19.05;61.02;97289.75;5110733;28;20188;-85
2022/05/17 04:42:04;;;;;;;12.30;8.60;;;;;;;19.23;60.30;97267.34;5094250;28;20310;-89
2022/05/17 04:44:34;;;;;;;8.27;7.47;;;;;;;19.01;60.58;97272.56;5095340;28;20180;-85
2022/05/17 04:47:01;;;;;;;12.20;7.93;;;;;;;18.91;61.30;97274.22;5112294;28;20184;-88
2022/05/17 04:49:31;;;;;;;12.43;9.00;;;;;;;19.01;61.23;97271.72;5090395;28;20191;-85
2022/05/17 04:51:58;;;;;;;14.13;8.90;;;;;;;19.13;61.75;97283.91;5091345;28;20191;-85
2022/05/17 04:54:27;;;;;;;11.40;8.70;;;;;;;19.35;60.53;97237.53;5110966;28;20651;-85
2022/05/17 04:56:55;;;;;;;9.53;8.57;;;;;;;19.89;60.80;97277.06;5093868;28;20196;-84
2022/05/17 04:59:23;;;;;;;12.10;8.00;;;;;;;20.09;58.78;97257.06;5092090;28;20195;-84
2022/05/17 05:01:50;;;;;;;8.40;7.63;;;;;;;19.48;58.64;97187.50;5074333;28;20654;-85
2022/05/17 05:04:17;;;;;;;8.97;7.60;;;;;;;20.10;59.01;97269.25;5111076;28;20324;-88
2022/05/17 05:06:45;;;;;;;9.13;7.83;;;;;;;20.27;57.94;97226.69;5107440;28;20177;-87
2022/05/17 05:09:13;;;;;;;14.67;11.60;;;;;;;20.36;59.14;97273.25;5105819;28;20192;-86
2022/05/17 05:11:41;;;;;;;9.07;7.80;;;;;;;20.11;59.44;97269.13;5110792;28;20192;-85
2022/05/17 05:14:09;;;;;;;10.03;8.40;;;;;;;20.28;59.53;97244.97;5110707;28;20200;-85
2022/05/17 05:16:37;;;;;;;9.93;6.90;;;;;;;20.49;59.40;97267.84;5110035;28;20198;-85
2022/05/17 05:19:07;;;;;;;8.30;7.50;;;;;;;20.26;59.22;97240.78;5114181;28;20196;-85
2022/05/17 05:21:37;;;;;;;17.33;10.27;;;;;;;20.61;57.96;97244.00;5115337;28;20217;-84
2022/05/17 05:24:07;;;;;;;12.03;8.30;;;;;;;20.39;58.21;97246.72;5114565;28;20193;-86
2022/05/17 05:26:34;;;;;;;8.53;7.73;;;;;;;20.57;58.39;97260.16;5113395;28;20208;-85
2022/05/17 05:29:02;;;;;;;12.30;8.00;;;;;;;20.78;58.05;97266.28;5097736;28;20679;-85
2022/05/17 05:31:29;;;;;;;12.93;7.20;;;;;;;20.99;56.74;97280.31;5115085;28;20209;-85
2022/05/17 05:34:00;;;;;;;10.90;7.63;;;;;;;21.01;57.25;97273.97;5114722;28;20177;-86
2022/05/17 05:36:32;;;;;;;8.77;7.57;;;;;;;21.42;57.33;97278.38;5079076;28;20189;-85
2022/05/17 05:39:02;;;;;;;11.80;7.93;;;;;;;21.46;56.89;97284.22;5061309;28;20233;-86
2022/05/17 05:41:31;;;;;;;12.33;7.10;;;;;;;21.19;57.23;97254.94;5112955;28;20222;-85
2022/05/17 05:43:59;;;;;;;8.60;7.57;;;;;;;21.34;57.61;97280.84;5110492;28;20219;-85
2022/05/17 05:46:28;;;;;;;11.43;8.67;;;;;;;21.43;57.61;97264.22;5092485;28;20196;-85
2022/05/17 05:49:00;;;;;;;9.03;7.70;;;;;;;21.56;57.81;97242.94;5088212;28;20186;-86
2022/05/17 05:51:29;;;;;;;9.97;7.80;;;;;;;21.78;55.76;97238.28;5089868;28;20200;-86
2022/05/17 05:54:09;;;;;;;8.57;7.37;;;;;;;21.91;55.91;97272.38;5086705;28;20186;-85
2022/05/17 05:57:02;;;;;;;9.90;7.57;;;;;;;21.74;55.72;97241.34;5104711;28;20257;-85
2022/05/17 05:59:33;;;;;;;9.60;6.77;;;;;;;22.00;56.12;97274.22;5107663;28;20188;-85
2022/05/17 06:02:13;;;;;;;10.90;9.80;;;;;;;22.16;56.16;97271.03;5105729;28;20225;-85
2022/05/17 06:04:41;;;;;;;10.03;7.27;;;;;;;21.82;55.88;97242.34;5107266;28;20257;-86
2022/05/17 06:07:08;;;;;;;9.43;8.07;;;;;;;22.00;56.57;97262.81;5063704;28;20200;-86
2022/05/17 06:09:42;;;;;;;10.43;7.30;;;;;;;22.23;55.99;97273.03;5082198;28;20809;-85
2022/05/17 06:12:12;;;;;;;10.23;7.80;;;;;;;22.56;55.43;97277.94;5082883;28;20202;-85
2022/05/17 06:14:41;;;;;;;8.83;7.63;;;;;;;22.36;52.31;97249.84;5100534;28;20187;-85
2022/05/17 06:17:09;;;;;;;13.03;8.90;;;;;;;22.58;53.80;97262.81;5100916;28;20220;-85
2022/05/17 06:19:43;;;;;;;12.47;7.73;;;;;;;22.83;53.25;97279.91;5103341;28;20230;-85
2022/05/17 06:22:11;;;;;;;9.40;6.97;;;;;;;22.51;50.28;97237.91;5095176;28;20221;-85
2022/05/17 06:24:38;;;;;;;9.67;6.43;;;;;;;22.87;50.92;97262.81;5114984;28;20227;-85
2022/05/17 06:27:07;;;;;;;7.33;6.57;;;;;;;22.80;51.94;97276.69;5118669;28;20169;-86
2022/05/17 06:29:38;;;;;;;8.23;6.53;;;;;;;22.26;51.94;97232.31;5102289;28;20201;-86
2022/05/17 06:32:14;;;;;;;6.97;6.27;;;;;;;22.33;52.17;97265.13;5101371;28;20224;-88
2022/05/17 06:34:45;;;;;;;8.13;6.60;;;;;;;22.55;52.49;97228.72;5064813;28;20188;-85
2022/05/17 06:37:12;;;;;;;9.70;6.23;;;;;;;22.97;50.93;97239.03;5100076;28;20237;-85
2022/05/17 06:39:42;;;;;;;8.40;6.80;;;;;;;23.16;50.90;97236.34;5119045;28;20196;-86
2022/05/17 06:42:09;;;;;;;10.40;7.90;;;;;;;23.22;51.53;97255.13;5100821;28;20230;-86
2022/05/17 06:44:40;;;;;;;7.20;6.00;;;;;;;23.45;50.23;97245.06;5116448;28;20196;-85
2022/05/17 06:47:08;;;;;;;6.20;5.60;;;;;;;23.55;49.72;97259.09;5116903;28;20191;-86
2022/05/17 06:49:39;;;;;;;9.03;5.53;;;;;;;23.67;49.15;97257.91;5096825;28;20234;-85
2022/05/17 06:52:09;;;;;;;6.20;5.60;;;;;;;23.68;48.89;97224.38;5116293;28;20181;-86
2022/05/17 06:54:43;;;;;;;6.87;5.20;;;;;;;23.76;49.20;97258.84;5098613;28;20210;-86
2022/05/17 06:57:48;;;;;;;8.97;5.50;;;;;;;23.68;48.35;97266.69;5078996;28;20213;-85
2022/05/17 07:00:33;;;;;;;6.10;5.13;;;;;;;23.73;48.40;97252.03;5095381;28;20181;-84
2022/05/17 07:03:02;;;;;;;8.90;6.57;;;;;;;24.01;48.21;97256.34;5114079;28;20240;-84
2022/05/17 07:05:35;;;;;;;8.87;5.23;;;;;;;23.88;47.89;97245.28;5095935;28;20264;-85
2022/05/17 07:08:03;;;;;;;6.67;5.63;;;;;;;23.93;46.85;97252.78;5113215;28;20202;-85
2022/05/17 07:13:19;;;;;;;6.23;4.97;;;;;;;23.89;44.69;97252.25;5118549;28;20194;-85
2022/05/17 07:15:56;;;;;;;5.77;4.23;;;;;;;24.07;43.55;97242.56;5116972;28;20232;-86
2022/05/17 07:18:28;;;;;;;4.97;3.93;;;;;;;24.00;43.67;97219.47;5093960;28;20204;-85
2022/05/17 07:21:04;;;;;;;5.03;4.53;;;;;;;23.82;43.55;97160.41;5114865;28;20202;-83
2022/05/17 07:23:32;;;;;;;6.43;5.20;;;;;;;24.53;44.75;97249.50;5093062;28;20591;-84
2022/05/17 07:26:00;;;;;;;8.87;4.40;;;;;;;24.73;44.24;97240.44;5089960;28;20219;-85
2022/05/17 07:28:27;;;;;;;4.97;4.53;;;;;;;24.72;43.73;97228.16;5109060;28;20197;-85
2022/05/17 07:30:57;;;;;;;8.80;5.83;;;;;;;24.98;43.86;97228.22;5087951;28;20263;-85
2022/05/17 07:33:26;;;;;;;9.23;5.57;;;;;;;25.11;43.50;97212.75;5106182;28;20263;-85
2022/05/17 07:35:56;;;;;;;9.93;5.63;;;;;;;25.37;43.38;97240.06;5112207;28;20187;-84
2022/05/17 07:38:25;;;;;;;7.70;5.50;;;;;;;25.55;42.87;97238.25;5076789;28;20214;-84
2022/05/17 07:40:53;;;;;;;8.87;6.17;;;;;;;25.46;42.90;97231.22;5094883;28;20207;-85
2022/05/17 07:43:23;;;;;;;5.87;5.27;;;;;;;25.44;42.96;97235.00;5093253;28;20243;-84
2022/05/17 07:45:53;;;;;;;8.17;6.40;;;;;;;25.74;42.56;97243.28;5092792;28;20181;-85
2022/05/17 07:48:25;;;;;;;9.10;6.20;;;;;;;25.75;43.07;97247.63;5105226;28;20203;-86
2022/05/17 07:50:54;;;;;;;8.80;6.13;;;;;;;25.26;43.45;97219.16;5058895;28;20630;-85
2022/05/17 07:53:25;;;;;;;9.57;5.83;;;;;;;25.51;42.80;97242.16;5110863;28;20197;-85
2022/05/17 07:55:55;;;;;;;7.57;6.13;;;;;;;25.44;43.36;97235.00;5090955;28;20201;-85
2022/05/17 07:58:24;;;;;;;8.87;6.40;;;;;;;25.28;44.00;97197.78;5073938;28;20184;-85
2022/05/17 08:00:55;;;;;;;7.00;5.80;;;;;;;25.79;42.64;97241.00;5108985;28;20195;-86
2022/05/17 08:03:24;;;;;;;7.10;5.93;;;;;;;25.92;42.38;97210.53;5075757;28;20227;-86
2022/05/17 08:05:58;;;;;;;7.90;5.53;;;;;;;25.88;42.36;97203.88;5109694;28;20267;-85
2022/05/17 08:08:25;;;;;;;6.97;5.43;;;;;;;26.06;41.37;97207.25;5092066;28;20189;-84
2022/05/17 08:10:55;;;;;;;8.83;5.80;;;;;;;26.24;40.37;97223.91;5108799;28;20192;-85
2022/05/17 08:13:23;;;;;;;10.23;5.33;;;;;;;26.33;40.86;97215.81;5110754;28;20189;-85
2022/05/17 08:15:51;;;;;;;8.83;5.33;;;;;;;26.57;39.52;97222.97;5077711;28;20184;-86
2022/05/17 08:18:31;;;;;;;6.70;4.40;;;;;;;26.77;37.83;97221.69;5093330;28;20193;-85
2022/05/17 08:21:08;;;;;;;6.37;4.47;;;;;;;26.89;33.72;97225.72;5109577;28;20279;-84
2022/05/17 08:23:35;;;;;;;7.00;3.97;;;;;;;26.79;35.94;97202.94;5108568;28;20231;-87
2022/05/17 08:28:55;;;;;;;4.60;3.83;;;;;;;26.97;34.32;97207.09;5097577;28;20224;-85
2022/05/17 08:31:24;;;;;;;4.63;3.43;;;;;;;27.10;33.93;97195.94;5096520;28;20177;-88
2022/05/17 08:33:51;;;;;;;6.70;3.40;;;;;;;27.29;31.98;97211.50;5112216;28;20176;-85
2022/05/17 08:36:26;;;;;;;4.37;3.20;;;;;;;27.01;34.20;97175.66;5081798;28;20239;-87
2022/05/17 08:38:54;;;;;;;7.57;4.27;;;;;;;27.06;32.86;97171.50;5097183;28;20191;-88
2022/05/17 08:41:48;;;;;;;5.03;2.90;;;;;;;27.34;29.97;97183.47;5112625;28;20172;-87
2022/05/17 08:44:23;;;;;;;3.97;2.90;;;;;;;27.09;29.50;97179.16;5114450;28;20187;-86
2022/05/17 08:47:06;;;;;;;5.77;4.10;;;;;;;27.31;30.26;97194.38;5114434;28;20210;-91
2022/05/17 08:49:58;;;;;;;5.97;4.00;;;;;;;27.31;30.74;97189.06;5095389;28;20196;-92
2022/05/17 08:52:31;;;;;;;5.50;3.30;;;;;;;27.04;30.03;97122.97;5093472;28;20214;-85
2022/05/17 08:55:19;;;;;;;5.97;3.37;;;;;;;27.44;29.20;97187.72;5061019;28;20176;-85
2022/05/17 08:57:54;;;;;;;5.87;3.47;;;;;;;27.59;29.81;97183.38;5093820;28;20252;-86
2022/05/17 09:00:33;;;;;;;6.17;2.97;;;;;;;27.48;28.98;97163.28;5114481;28;20238;-89
2022/05/17 09:03:24;;;;;;;7.70;4.00;;;;;;;27.75;29.44;97172.66;5075757;28;20290;-85
2022/05/17 09:05:59;;;;;;;4.70;3.33;;;;;;;27.82;30.02;97173.63;5112292;28;20200;-85
2022/05/17 09:09:08;;;;;;;5.80;3.27;;;;;;;27.65;30.32;97174.69;5095797;28;20188;-85
2022/05/17 09:11:54;;;;;;;4.83;3.53;;;;;;;27.55;29.21;97169.59;5112713;28;20652;-85
2022/05/17 09:14:29;;;;;;;6.37;4.30;;;;;;;27.55;29.55;97174.06;5112066;28;20204;-86
2022/05/17 09:17:04;;;;;;;3.80;2.93;;;;;;;27.80;27.98;97183.63;5094331;28;20267;-85
2022/05/17 09:19:37;;;;;;;4.40;3.33;;;;;;;27.76;28.38;97166.34;5094809;28;20176;-86
2022/05/17 09:22:06;;;;;;;6.43;3.30;;;;;;;27.93;28.38;97167.91;5095948;28;20267;-87
2022/05/17 09:24:43;;;;;;;4.03;2.93;;;;;;;27.85;27.34;97154.63;5091328;28;20231;-85
2022/05/17 09:27:25;;;;;;;5.73;3.13;;;;;;;28.13;27.08;97185.16;5091814;28;20208;-86
2022/05/17 09:30:03;;;;;;;3.50;2.90;;;;;;;28.16;29.28;97174.97;5093888;28;20195;-85
2022/05/17 09:32:37;;;;;;;6.00;3.57;;;;;;;28.02;29.47;97165.06;5110802;28;20219;-85
2022/05/17 09:35:16;;;;;;;5.90;4.07;;;;;;;28.04;29.53;97172.88;5111287;28;20180;-86
2022/05/17 09:38:06;;;;;;;7.17;3.40;;;;;;;28.01;29.88;97155.41;5112219;28;20188;-86
2022/05/17 09:40:43;;;;;;;4.43;3.03;;;;;;;27.87;29.53;97140.16;5090399;28;20211;-84
2022/05/17 09:43:40;;;;;;;6.23;3.20;;;;;;;27.77;29.71;97144.84;5094177;28;20212;-85
2022/05/17 09:46:13;;;;;;;2.80;2.50;;;;;;;27.46;30.19;97157.31;5095022;28;20219;-85
2022/05/17 09:54:48;;;;;;;3.80;3.40;;;;;;;26.68;32.54;97108.41;5111111;28;20176;-85
2022/05/17 09:57:26;;;;;;;4.93;3.83;;;;;;;27.12;33.86;97116.81;5096474;28;20173;-84
2022/05/17 10:00:08;;;;;;;5.27;4.57;;;;;;;27.62;34.01;97138.59;5079446;28;20260;-85
2022/05/17 10:03:00;;;;;;;6.17;4.00;;;;;;;27.69;32.38;97126.28;5098227;28;20214;-84
2022/05/17 10:05:45;;;;;;;8.03;5.30;;;;;;;27.86;33.46;97116.38;5118131;28;20192;-85
2022/05/17 10:08:12;;;;;;;3.87;3.47;;;;;;;27.80;33.57;97130.38;5099083;28;20201;-86
2022/05/17 10:10:43;;;;;;;7.53;3.93;;;;;;;27.86;32.59;97119.84;5116350;28;20303;-86
2022/05/17 10:13:23;;;;;;;7.73;5.00;;;;;;;27.90;32.62;97120.34;5096919;28;20204;-85
2022/05/17 10:16:01;;;;;;;6.43;4.00;;;;;;;28.19;32.21;97123.19;5097664;28;20199;-85
2022/05/17 10:18:54;;;;;;;8.50;4.80;;;;;;;28.45;31.74;97126.28;5099929;28;20196;-85
2022/05/17 10:21:58;;;;;;;4.47;3.37;;;;;;;28.46;30.99;97127.94;5081313;28;20193;-85
2022/05/17 10:24:41;;;;;;;6.27;2.97;;;;;;;28.08;30.46;97080.97;5084519;28;20228;-85
2022/05/17 10:27:25;;;;;;;5.30;3.90;;;;;;;28.44;30.69;97119.28;5081102;28;20197;-84
2022/05/17 10:30:02;;;;;;;4.33;3.30;;;;;;;28.36;30.54;97083.91;5104876;28;20189;-85
2022/05/17 10:32:33;;;;;;;5.97;3.97;;;;;;;28.69;29.95;97120.78;5117122;28;20211;-86
2022/05/17 10:35:15;;;;;;;3.23;2.93;;;;;;;28.82;30.03;97112.16;5117506;28;20195;-86
2022/05/17 10:38:03;;;;;;;3.47;2.87;;;;;;;28.36;30.38;97100.72;5115196;28;20256;-85
2022/05/17 10:40:35;;;;;;;8.53;3.97;;;;;;;28.28;32.61;97094.63;5115022;28;20180;-87
2022/05/17 10:43:04;;;;;;;9.67;4.60;;;;;;;28.36;32.48;97090.06;5114158;28;20242;-85
2022/05/17 10:45:33;;;;;;;5.13;4.10;;;;;;;28.45;32.71;97102.31;5114675;28;20209;-84
2022/05/17 10:48:46;;;;;;;7.03;4.00;;;;;;;28.49;33.18;97110.78;5093507;28;20222;-88
2022/05/17 10:51:25;;;;;;;6.07;4.10;;;;;;;28.42;32.99;97092.00;5110730;28;20192;-84
2022/05/17 10:54:20;;;;;;;7.50;4.27;;;;;;;28.44;33.99;97097.16;5109010;28;20247;-85
2022/05/17 10:57:07;;;;;;;6.07;4.90;;;;;;;28.77;33.26;97087.91;5108979;28;20219;-85
2022/05/17 11:00:01;;;;;;;6.40;3.83;;;;;;;28.70;32.63;97092.28;5090088;28;20613;-84
2022/05/17 11:02:55;;;;;;;7.73;4.20;;;;;;;28.55;33.24;97078.91;5112210;28;20246;-86
2022/05/17 11:05:54;;;;;;;5.27;3.80;;;;;;;28.12;33.23;97077.78;5114777;28;20169;-86
2022/05/17 11:09:07;;;;;;;7.37;4.10;;;;;;;28.43;32.35;97053.69;5115142;28;20210;-86
2022/05/17 11:12:04;;;;;;;5.77;3.70;;;;;;;28.76;32.99;97081.72;5037769;28;20183;-86
2022/05/17 11:15:02;;;;;;;4.70;3.90;;;;;;;28.57;32.97;97065.41;5116322;28;20226;-86
2022/05/17 11:17:39;;;;;;;7.23;4.60;;;;;;;28.34;34.72;97062.75;5110383;28;20185;-84
2022/05/17 11:20:14;;;;;;;7.27;4.83;;;;;;;28.29;33.60;97062.50;5097855;28;20205;-85
2022/05/17 11:22:50;;;;;;;7.30;4.17;;;;;;;28.31;34.01;97060.47;5111606;28;20264;-86
2022/05/17 11:25:55;;;;;;;5.77;5.00;;;;;;;28.66;33.37;97059.84;5114107;28;20213;-85
2022/05/17 11:28:57;;;;;;;6.20;4.50;;;;;;;29.06;32.29;97055.09;5094281;28;20727;-85
2022/05/17 11:31:29;;;;;;;4.33;3.93;;;;;;;29.33;31.86;97051.75;5109018;28;20200;-85
2022/05/17 11:34:26;;;;;;;6.40;4.40;;;;;;;29.25;32.09;97044.69;5092659;28;20761;-85
2022/05/17 11:37:10;;;;;;;4.50;4.10;;;;;;;28.67;33.52;96986.84;5105103;28;20205;-85
2022/05/17 11:39:47;;;;;;;6.43;3.80;;;;;;;28.78;33.90;97031.72;5112332;28;20200;-86
2022/05/17 11:45:45;;;;;;;9.20;5.10;;;;;;;28.74;33.31;96998.44;5113477;28;20236;-85
2022/05/17 11:48:21;;;;;;;13.23;4.97;;;;;;;29.30;32.93;97025.47;5096136;28;20203;-86
2022/05/17 11:50:51;;;;;;;5.50;4.23;;;;;;;29.33;32.57;97023.25;5096737;28;20315;-84
2022/05/17 11:53:22;;;;;;;8.77;4.40;;;;;;;29.33;32.99;97020.56;5111093;28;20245;-84
2022/05/17 11:56:28;;;;;;;7.40;5.70;;;;;;;29.48;32.42;97012.53;5112633;28;20192;-86
2022/05/17 11:59:12;;;;;;;5.67;4.10;;;;;;;29.41;32.08;96980.44;5080429;28;20214;-88
2022/05/17 12:01:47;;;;;;;5.87;4.63;;;;;;;29.69;32.02;97024.09;5112127;28;20278;-85
2022/05/17 12:04:26;;;;;;;7.37;4.60;;;;;;;29.53;32.36;97016.28;5061557;28;20246;-87
2022/05/17 12:07:03;;;;;;;6.20;4.17;;;;;;;29.53;32.37;97016.28;5111365;28;20767;-87
2022/05/17 12:09:34;;;;;;;4.73;4.20;;;;;;;29.61;31.68;97013.50;5110713;28;20196;-87
2022/05/17 12:12:28;;;;;;;8.27;4.57;;;;;;;29.79;31.58;97010.44;5095176;28;20676;-86
2022/05/17 12:15:30;;;;;;;8.10;5.00;;;;;;;29.55;32.60;97002.78;5112701;28;20184;-85
2022/05/17 12:18:32;;;;;;;6.37;4.10;;;;;;;29.65;31.99;96992.59;5046525;28;20196;-88